createdAt,value
2016-07-15T00:00:59.010Z,0
2016-07-15T00:01:59.004Z,0
2016-07-15T00:02:58.997Z,0
2016-07-15T00:03:59.004Z,0
2016-07-15T00:04:58.993Z,0
2016-07-15T00:05:58.993Z,0
2016-07-15T00:06:58.991Z,0
2016-07-15T00:07:58.985Z,0
2016-07-15T00:08:58.990Z,0
2016-07-15T00:09:58.980Z,0
2016-07-15T00:10:58.978Z,0
2016-07-15T00:11:58.968Z,0
2016-07-15T00:12:58.977Z,0
2016-07-15T00:13:58.970Z,0
2016-07-15T00:14:58.958Z,0
2016-07-15T00:15:58.966Z,0
2016-07-15T00:17:01.109Z,0
2016-07-15T00:17:59.962Z,0
2016-07-15T00:18:59.500Z,0
2016-07-15T00:19:59.250Z,0
2016-07-15T00:20:59.361Z,0
2016-07-15T00:21:58.944Z,0
2016-07-15T00:22:58.943Z,0
2016-07-15T00:23:58.943Z,0
2016-07-15T00:24:58.932Z,0
2016-07-15T00:25:58.939Z,0
2016-07-15T00:27:00.385Z,0
2016-07-15T00:28:02.462Z,0
2016-07-15T00:30:01.606Z,0
2016-07-15T00:31:01.305Z,0
2016-07-15T00:32:00.261Z,0
2016-07-15T00:33:00.082Z,0
2016-07-15T00:33:58.956Z,0
2016-07-15T00:34:58.915Z,0
2016-07-15T00:35:58.903Z,0
2016-07-15T00:36:59.890Z,0
2016-07-15T00:38:01.621Z,0
2016-07-15T00:38:59.805Z,0
2016-07-15T00:39:59.862Z,0
2016-07-15T00:40:59.357Z,0
2016-07-15T00:41:59.833Z,0
2016-07-15T00:42:58.886Z,0
2016-07-15T00:43:58.870Z,0
2016-07-15T00:44:58.865Z,0
2016-07-15T00:45:58.868Z,0
2016-07-15T00:46:58.855Z,0
2016-07-15T00:47:58.860Z,0
2016-07-15T00:48:58.856Z,0
2016-07-15T00:49:58.851Z,0
2016-07-15T00:50:58.849Z,0
2016-07-15T00:51:58.854Z,0
2016-07-15T00:52:58.841Z,0
2016-07-15T00:53:58.850Z,0
2016-07-15T00:54:58.840Z,0
2016-07-15T00:55:58.837Z,0
2016-07-15T00:56:58.832Z,0
2016-07-15T00:57:58.824Z,0
2016-07-15T00:58:58.839Z,0
2016-07-15T00:59:58.822Z,0
2016-07-15T01:00:58.828Z,0
2016-07-15T01:01:58.817Z,0
2016-07-15T01:02:58.815Z,0
2016-07-15T01:03:58.805Z,0
2016-07-15T01:04:58.810Z,0
2016-07-15T01:05:58.804Z,0
2016-07-15T01:06:58.805Z,0
2016-07-15T01:07:58.793Z,0
2016-07-15T01:08:58.802Z,0
2016-07-15T01:09:58.793Z,0
2016-07-15T01:10:58.786Z,0
2016-07-15T01:11:58.795Z,0
2016-07-15T01:12:59.475Z,0
2016-07-15T01:13:58.776Z,0
2016-07-15T01:14:58.772Z,0
2016-07-15T01:15:58.767Z,0
2016-07-15T01:16:58.777Z,0
2016-07-15T01:17:58.765Z,0
2016-07-15T01:18:58.757Z,0
2016-07-15T01:19:58.757Z,0
2016-07-15T01:20:58.869Z,0
2016-07-15T01:21:58.755Z,0
2016-07-15T01:22:58.757Z,0
2016-07-15T01:23:58.754Z,0
2016-07-15T01:24:58.745Z,0
2016-07-15T01:25:58.748Z,0
2016-07-15T01:26:58.745Z,0
2016-07-15T01:27:58.737Z,0
2016-07-15T01:28:58.739Z,0
2016-07-15T01:29:58.734Z,0
2016-07-15T01:30:58.731Z,0
2016-07-15T01:31:58.729Z,0
2016-07-15T01:32:58.724Z,0
2016-07-15T01:33:58.715Z,0
2016-07-15T01:34:58.719Z,0
2016-07-15T01:35:58.859Z,0
2016-07-15T01:36:59.215Z,0
2016-07-15T01:37:59.061Z,0
2016-07-15T01:38:59.056Z,0
2016-07-15T01:39:59.051Z,0
2016-07-15T01:40:58.743Z,0
2016-07-15T01:41:58.708Z,0
2016-07-15T01:42:58.696Z,0
2016-07-15T01:43:58.688Z,0
2016-07-15T01:45:00.135Z,0
2016-07-15T01:47:02.408Z,0
2016-07-15T01:48:00.278Z,0
2016-07-15T01:49:00.714Z,0
2016-07-15T01:49:59.774Z,0
2016-07-15T01:50:58.675Z,0
2016-07-15T01:51:59.298Z,0
2016-07-15T01:52:58.655Z,0
2016-07-15T01:53:58.662Z,0
2016-07-15T01:54:58.649Z,0
2016-07-15T01:57:00.210Z,0
2016-07-15T01:58:01.179Z,0
2016-07-15T01:58:58.650Z,0
2016-07-15T01:59:58.632Z,0
2016-07-15T02:00:59.179Z,0
2016-07-15T02:01:58.627Z,0
2016-07-15T02:02:58.637Z,0
2016-07-15T02:03:58.630Z,0
2016-07-15T02:04:58.617Z,0
2016-07-15T02:05:58.619Z,0
2016-07-15T02:06:58.611Z,0
2016-07-15T02:07:58.616Z,0
2016-07-15T02:08:58.607Z,0
2016-07-15T02:09:58.601Z,0
2016-07-15T02:10:58.612Z,0
2016-07-15T02:11:58.599Z,0
2016-07-15T02:12:58.599Z,0
2016-07-15T02:13:58.586Z,0
2016-07-15T02:14:58.601Z,0
2016-07-15T02:15:58.582Z,0
2016-07-15T02:16:58.579Z,0
2016-07-15T02:17:58.589Z,0
2016-07-15T02:18:58.570Z,0
2016-07-15T02:19:58.573Z,0
2016-07-15T02:20:59.558Z,0
2016-07-15T02:21:58.561Z,0
2016-07-15T02:22:58.563Z,0
2016-07-15T02:23:58.551Z,0
2016-07-15T02:24:58.549Z,0
2016-07-15T02:25:58.548Z,0
2016-07-15T02:26:58.545Z,0
2016-07-15T02:27:58.541Z,0
2016-07-15T02:28:58.533Z,0
2016-07-15T02:29:58.541Z,0
2016-07-15T02:30:58.534Z,4
2016-07-15T02:31:58.527Z,4
2016-07-15T02:32:58.527Z,4
2016-07-15T02:33:58.525Z,0
2016-07-15T02:34:58.519Z,4
2016-07-15T02:35:58.511Z,4
2016-07-15T02:36:58.517Z,8
2016-07-15T02:37:58.507Z,8
2016-07-15T02:38:58.500Z,12
2016-07-15T02:39:58.500Z,12
2016-07-15T02:40:58.501Z,12
2016-07-15T02:41:58.486Z,12
2016-07-15T02:42:58.493Z,16
2016-07-15T02:43:58.488Z,16
2016-07-15T02:44:58.478Z,16
2016-07-15T02:45:58.487Z,24
2016-07-15T02:46:58.475Z,20
2016-07-15T02:47:58.476Z,20
2016-07-15T02:48:58.471Z,28
2016-07-15T02:49:58.464Z,36
2016-07-15T02:50:58.459Z,36
2016-07-15T02:51:58.463Z,44
2016-07-15T02:52:58.452Z,52
2016-07-15T02:53:59.706Z,52
2016-07-15T02:55:13.371Z,60
2016-07-15T02:55:59.150Z,64
2016-07-15T02:56:59.493Z,72
2016-07-15T02:57:58.569Z,76
2016-07-15T02:58:59.336Z,76
2016-07-15T02:59:59.129Z,92
2016-07-15T03:00:58.427Z,100
2016-07-15T03:01:58.424Z,92
2016-07-15T03:02:58.927Z,96
2016-07-15T03:05:00.629Z,112
2016-07-15T03:06:00.065Z,112
2016-07-15T03:06:58.860Z,132
2016-07-15T03:07:59.390Z,120
2016-07-15T03:08:59.194Z,100
2016-07-15T03:09:58.400Z,96
2016-07-15T03:10:58.943Z,96
2016-07-15T03:11:58.401Z,124
2016-07-15T03:12:58.410Z,116
2016-07-15T03:13:59.708Z,112
2016-07-15T03:14:59.910Z,136
2016-07-15T03:15:59.957Z,136
2016-07-15T03:17:00.439Z,136
2016-07-15T03:17:58.632Z,164
2016-07-15T03:18:58.378Z,188
2016-07-15T03:19:58.364Z,180
2016-07-15T03:20:58.380Z,192
2016-07-15T03:21:58.362Z,208
2016-07-15T03:22:58.363Z,208
2016-07-15T03:23:58.363Z,208
2016-07-15T03:24:58.351Z,252
2016-07-15T03:25:58.356Z,268
2016-07-15T03:26:58.360Z,264
2016-07-15T03:27:58.350Z,288
2016-07-15T03:28:58.333Z,324
2016-07-15T03:29:58.336Z,316
2016-07-15T03:30:58.339Z,332
2016-07-15T03:31:58.339Z,332
2016-07-15T03:32:58.327Z,368
2016-07-15T03:33:58.328Z,392
2016-07-15T03:34:58.320Z,420
2016-07-15T03:35:58.320Z,448
2016-07-15T03:36:58.310Z,464
2016-07-15T03:37:58.322Z,468
2016-07-15T03:38:58.308Z,536
2016-07-15T03:39:58.313Z,560
2016-07-15T03:40:58.304Z,612
2016-07-15T03:41:58.296Z,688
2016-07-15T03:42:58.298Z,736
2016-07-15T03:43:58.294Z,792
2016-07-15T03:44:58.292Z,780
2016-07-15T03:45:58.286Z,848
2016-07-15T03:46:58.287Z,816
2016-07-15T03:47:58.287Z,716
2016-07-15T03:48:58.274Z,700
2016-07-15T03:49:58.271Z,692
2016-07-15T03:50:58.280Z,668
2016-07-15T03:51:58.264Z,736
2016-07-15T03:52:58.268Z,796
2016-07-15T03:53:58.261Z,980
2016-07-15T03:54:58.257Z,1348
2016-07-15T03:55:58.256Z,1520
2016-07-15T03:56:58.257Z,1600
2016-07-15T03:57:58.255Z,1680
2016-07-15T03:58:58.249Z,1656
2016-07-15T03:59:58.238Z,1680
2016-07-15T04:00:58.250Z,1752
2016-07-15T04:01:58.238Z,1812
2016-07-15T04:02:58.234Z,1836
2016-07-15T04:03:58.235Z,1864
2016-07-15T04:04:58.233Z,2128
2016-07-15T04:05:58.230Z,1996
2016-07-15T04:06:58.222Z,2388
2016-07-15T04:07:58.224Z,2340
2016-07-15T04:08:58.216Z,2872
2016-07-15T04:09:58.214Z,2916
2016-07-15T04:10:58.216Z,3476
2016-07-15T04:12:28.044Z,3620
2016-07-15T04:12:58.509Z,3672
2016-07-15T04:13:59.552Z,3748
2016-07-15T04:14:58.197Z,3784
2016-07-15T04:16:13.109Z,3768
2016-07-15T04:16:58.592Z,3780
2016-07-15T04:17:58.240Z,3692
2016-07-15T04:18:58.191Z,3736
2016-07-15T04:19:58.192Z,3524
2016-07-15T04:20:59.425Z,3268
2016-07-15T04:22:00.383Z,3100
2016-07-15T04:22:59.860Z,3248
2016-07-15T04:24:00.936Z,3252
2016-07-15T04:25:01.399Z,3432
2016-07-15T04:26:00.127Z,3632
2016-07-15T04:26:58.168Z,3476
2016-07-15T04:27:58.236Z,3728
2016-07-15T04:28:58.162Z,3668
2016-07-15T04:29:58.307Z,3472
2016-07-15T04:30:58.155Z,3480
2016-07-15T04:32:01.081Z,3396
2016-07-15T04:32:58.609Z,3372
2016-07-15T04:33:59.628Z,3412
2016-07-15T04:34:59.086Z,3548
2016-07-15T04:35:58.148Z,3800
2016-07-15T04:36:58.145Z,3876
2016-07-15T04:37:58.142Z,4020
2016-07-15T04:38:58.134Z,4516
2016-07-15T04:39:58.137Z,4208
2016-07-15T04:40:58.136Z,3672
2016-07-15T04:41:58.126Z,2340
2016-07-15T04:42:58.125Z,3900
2016-07-15T04:43:58.126Z,5384
2016-07-15T04:44:58.118Z,5984
2016-07-15T04:45:58.113Z,7104
2016-07-15T04:46:58.114Z,7984
2016-07-15T04:47:58.118Z,8436
2016-07-15T04:48:58.112Z,9444
2016-07-15T04:49:58.109Z,10428
2016-07-15T04:50:58.111Z,9572
2016-07-15T04:51:58.108Z,9576
2016-07-15T04:52:58.099Z,8912
2016-07-15T04:53:58.101Z,8436
2016-07-15T04:54:58.093Z,8104
2016-07-15T04:55:58.090Z,9228
2016-07-15T04:56:58.094Z,11160
2016-07-15T04:57:58.097Z,11404
2016-07-15T04:58:58.087Z,9636
2016-07-15T04:59:58.086Z,9108
2016-07-15T05:00:58.083Z,7332
2016-07-15T05:01:58.080Z,8888
2016-07-15T05:02:58.083Z,9160
2016-07-15T05:03:58.073Z,9128
2016-07-15T05:04:58.080Z,9232
2016-07-15T05:05:58.068Z,8916
2016-07-15T05:06:58.074Z,6164
2016-07-15T05:07:58.074Z,4900
2016-07-15T05:08:58.061Z,5324
2016-07-15T05:09:58.076Z,5688
2016-07-15T05:10:58.065Z,6000
2016-07-15T05:11:58.062Z,6064
2016-07-15T05:12:58.076Z,5740
2016-07-15T05:13:58.070Z,5480
2016-07-15T05:14:58.059Z,6052
2016-07-15T05:15:58.057Z,6628
2016-07-15T05:16:58.048Z,6624
2016-07-15T05:17:58.065Z,6392
2016-07-15T05:18:58.057Z,6160
2016-07-15T05:19:58.052Z,5616
2016-07-15T05:20:58.057Z,6192
2016-07-15T05:21:58.098Z,5100
2016-07-15T05:22:58.042Z,4416
2016-07-15T05:23:58.044Z,4900
2016-07-15T05:24:58.047Z,5968
2016-07-15T05:25:58.044Z,7040
2016-07-15T05:26:58.041Z,8372
2016-07-15T05:27:58.044Z,8272
2016-07-15T05:28:58.041Z,7532
2016-07-15T05:29:58.035Z,8168
2016-07-15T05:30:58.184Z,7404
2016-07-15T05:31:58.032Z,7312
2016-07-15T05:32:58.539Z,6432
2016-07-15T05:33:58.031Z,7568
2016-07-15T05:34:58.024Z,7192
2016-07-15T05:35:58.031Z,7796
2016-07-15T05:36:58.028Z,8796
2016-07-15T05:37:58.020Z,9728
2016-07-15T05:38:58.024Z,10156
2016-07-15T05:39:58.372Z,10928
2016-07-15T05:41:30.120Z,9868
2016-07-15T05:42:00.274Z,8856
2016-07-15T05:42:58.702Z,7424
2016-07-15T05:43:58.843Z,6936
2016-07-15T05:44:58.588Z,7256
2016-07-15T05:45:59.000Z,6820
2016-07-15T05:46:58.006Z,5628
2016-07-15T05:47:58.008Z,5464
2016-07-15T05:48:58.012Z,6456
2016-07-15T05:50:01.044Z,7276
2016-07-15T05:50:58.396Z,7660
2016-07-15T05:52:00.706Z,7824
2016-07-15T05:52:58.009Z,7188
2016-07-15T05:53:57.996Z,6380
2016-07-15T05:54:59.032Z,5328
2016-07-15T05:55:57.994Z,4736
2016-07-15T05:56:58.004Z,3752
2016-07-15T05:57:57.993Z,3916
2016-07-15T05:58:57.998Z,3592
2016-07-15T05:59:57.998Z,3788
2016-07-15T06:00:57.988Z,4304
2016-07-15T06:01:57.991Z,4252
2016-07-15T06:02:57.986Z,4460
2016-07-15T06:03:57.988Z,5128
2016-07-15T06:04:57.989Z,5436
2016-07-15T06:05:57.986Z,6044
2016-07-15T06:06:57.983Z,6376
2016-07-15T06:07:57.985Z,6696
2016-07-15T06:08:57.986Z,8948
2016-07-15T06:09:57.975Z,8564
2016-07-15T06:10:57.985Z,9648
2016-07-15T06:11:57.975Z,7288
2016-07-15T06:12:57.976Z,7728
2016-07-15T06:13:57.973Z,7276
2016-07-15T06:14:57.973Z,6516
2016-07-15T06:15:57.972Z,5212
2016-07-15T06:16:57.970Z,5844
2016-07-15T06:17:57.967Z,5168
2016-07-15T06:18:58.668Z,4476
2016-07-15T06:19:57.964Z,5048
2016-07-15T06:20:57.968Z,5172
2016-07-15T06:21:57.966Z,4528
2016-07-15T06:22:57.968Z,4904
2016-07-15T06:23:57.964Z,5128
2016-07-15T06:24:57.961Z,5572
2016-07-15T06:25:57.955Z,6088
2016-07-15T06:26:57.946Z,6288
2016-07-15T06:27:57.952Z,9348
2016-07-15T06:28:57.953Z,8944
2016-07-15T06:29:57.953Z,12404
2016-07-15T06:30:57.948Z,14872
2016-07-15T06:31:57.951Z,17792
2016-07-15T06:32:57.965Z,19744
2016-07-15T06:33:57.947Z,21248
2016-07-15T06:34:57.944Z,22176
2016-07-15T06:35:57.943Z,23104
2016-07-15T06:36:57.938Z,21952
2016-07-15T06:37:57.936Z,23104
2016-07-15T06:38:58.633Z,21504
2016-07-15T06:39:57.931Z,21760
2016-07-15T06:40:57.930Z,21920
2016-07-15T06:41:57.936Z,24480
2016-07-15T06:42:57.933Z,30208
2016-07-15T06:43:57.927Z,30112
2016-07-15T06:44:57.930Z,25216
2016-07-15T06:45:57.929Z,23200
2016-07-15T06:46:57.945Z,19456
2016-07-15T06:47:57.931Z,22144
2016-07-15T06:48:58.377Z,18016
2016-07-15T06:50:12.860Z,13788
2016-07-15T06:50:58.085Z,11900
2016-07-15T06:51:57.946Z,12168
2016-07-15T06:52:57.923Z,10864
2016-07-15T06:53:57.979Z,8116
2016-07-15T06:54:57.934Z,6780
2016-07-15T06:55:57.933Z,6924
2016-07-15T06:56:57.982Z,6584
2016-07-15T06:57:58.029Z,7100
2016-07-15T06:59:59.513Z,8700
2016-07-15T07:00:58.717Z,9840
2016-07-15T07:01:59.906Z,10076
2016-07-15T07:02:57.940Z,9688
2016-07-15T07:03:57.942Z,10376
2016-07-15T07:04:58.295Z,10304
2016-07-15T07:05:57.937Z,11188
2016-07-15T07:06:57.937Z,12836
2016-07-15T07:07:57.942Z,16768
2016-07-15T07:10:00.969Z,17632
2016-07-15T07:10:59.156Z,18784
2016-07-15T07:11:57.937Z,21536
2016-07-15T07:12:57.940Z,20288
2016-07-15T07:13:59.023Z,19104
2016-07-15T07:14:58.637Z,16768
2016-07-15T07:15:57.936Z,12604
2016-07-15T07:16:57.935Z,12096
2016-07-15T07:17:57.942Z,15304
2016-07-15T07:18:58.645Z,16672
2016-07-15T07:19:57.947Z,17344
2016-07-15T07:20:57.937Z,16320
2016-07-15T07:21:58.043Z,22048
2016-07-15T07:22:57.951Z,21472
2016-07-15T07:23:57.940Z,17152
2016-07-15T07:24:57.948Z,14868
2016-07-15T07:25:57.942Z,19168
2016-07-15T07:26:57.956Z,22464
2016-07-15T07:27:57.947Z,24480
2016-07-15T07:28:57.948Z,25248
2016-07-15T07:29:57.953Z,26144
2016-07-15T07:30:57.953Z,30176
2016-07-15T07:31:57.956Z,36512
2016-07-15T07:32:57.953Z,32032
2016-07-15T07:33:58.224Z,30880
2016-07-15T07:34:57.955Z,27776
2016-07-15T07:35:57.965Z,27936
2016-07-15T07:36:57.956Z,19264
2016-07-15T07:37:57.960Z,20672
2016-07-15T07:38:57.963Z,25472
2016-07-15T07:39:57.971Z,28256
2016-07-15T07:40:57.971Z,28544
2016-07-15T07:41:57.971Z,30208
2016-07-15T07:42:57.979Z,19392
2016-07-15T07:43:57.982Z,16704
2016-07-15T07:44:57.979Z,18304
2016-07-15T07:45:57.983Z,21088
2016-07-15T07:46:57.989Z,23840
2016-07-15T07:47:57.987Z,31424
2016-07-15T07:48:57.997Z,28608
2016-07-15T07:49:57.997Z,27776
2016-07-15T07:50:58.009Z,26752
2016-07-15T07:51:58.008Z,26016
2016-07-15T07:52:58.014Z,23808
2016-07-15T07:53:58.019Z,25504
2016-07-15T07:54:58.020Z,29568
2016-07-15T07:55:58.026Z,27072
2016-07-15T07:56:58.023Z,26080
2016-07-15T07:57:58.027Z,26048
2016-07-15T07:58:58.028Z,23872
2016-07-15T07:59:58.033Z,23904
2016-07-15T08:00:58.038Z,25056
2016-07-15T08:01:58.041Z,26944
2016-07-15T08:02:58.049Z,26752
2016-07-15T08:03:58.049Z,26560
2016-07-15T08:04:58.052Z,27648
2016-07-15T08:05:58.059Z,29440
2016-07-15T08:07:58.568Z,33408
2016-07-15T08:09:59.372Z,35872
2016-07-15T08:10:58.179Z,38240
2016-07-15T08:11:58.080Z,37120
2016-07-15T08:12:58.081Z,37600
2016-07-15T08:13:58.185Z,52928
2016-07-15T08:14:58.093Z,65408
2016-07-15T08:16:58.500Z,91552
2016-07-15T08:18:00.512Z,28160
2016-07-15T08:19:00.551Z,40000
2016-07-15T08:20:00.222Z,107072
2016-07-15T08:20:58.835Z,61376
2016-07-15T08:21:59.231Z,19264
2016-07-15T08:22:58.679Z,17664
2016-07-15T08:23:58.148Z,20000
2016-07-15T08:24:58.306Z,21280
2016-07-15T08:25:58.174Z,21056
2016-07-15T08:27:58.796Z,32288
2016-07-15T08:28:59.580Z,23040
2016-07-15T08:29:58.771Z,21632
2016-07-15T08:30:59.724Z,15936
2016-07-15T08:31:58.209Z,18784
2016-07-15T08:32:59.039Z,22816
2016-07-15T08:33:58.220Z,21280
2016-07-15T08:34:58.339Z,19680
2016-07-15T08:35:58.228Z,20224
2016-07-15T08:36:58.240Z,19712
2016-07-15T08:37:58.245Z,14752
2016-07-15T08:38:58.246Z,16576
2016-07-15T08:39:58.255Z,13272
2016-07-15T08:40:58.256Z,8460
2016-07-15T08:41:58.261Z,12700
2016-07-15T08:42:58.291Z,12684
2016-07-15T08:43:58.271Z,13144
2016-07-15T08:44:58.285Z,12956
2016-07-15T08:45:58.289Z,13556
2016-07-15T08:46:58.285Z,12828
2016-07-15T08:47:58.299Z,9816
2016-07-15T08:48:58.297Z,9552
2016-07-15T08:49:58.308Z,13004
2016-07-15T08:50:58.298Z,14800
2016-07-15T08:51:58.307Z,15424
2016-07-15T08:52:58.322Z,11456
2016-07-15T08:53:58.320Z,9056
2016-07-15T08:54:58.321Z,8892
2016-07-15T08:55:58.333Z,10216
2016-07-15T08:56:58.324Z,11684
2016-07-15T08:57:58.332Z,12804
2016-07-15T08:58:58.332Z,11688
2016-07-15T08:59:58.335Z,9468
2016-07-15T09:00:58.347Z,7248
2016-07-15T09:01:58.340Z,8160
2016-07-15T09:02:58.338Z,9572
2016-07-15T09:03:58.349Z,9808
2016-07-15T09:04:58.348Z,8964
2016-07-15T09:05:58.355Z,9272
2016-07-15T09:06:58.352Z,11972
2016-07-15T09:07:58.351Z,13652
2016-07-15T09:08:58.360Z,14568
2016-07-15T09:09:58.361Z,13936
2016-07-15T09:10:58.359Z,15544
2016-07-15T09:11:58.359Z,17152
2016-07-15T09:12:58.365Z,17824
2016-07-15T09:13:58.367Z,18784
2016-07-15T09:14:58.375Z,18176
2016-07-15T09:15:58.370Z,16992
2016-07-15T09:16:58.375Z,14944
2016-07-15T09:17:58.382Z,13932
2016-07-15T09:18:58.375Z,18496
2016-07-15T09:19:58.376Z,26752
2016-07-15T09:20:58.397Z,27552
2016-07-15T09:21:58.437Z,26688
2016-07-15T09:22:58.386Z,24352
2016-07-15T09:23:58.390Z,18048
2016-07-15T09:24:59.199Z,15084
2016-07-15T09:27:00.197Z,15524
2016-07-15T09:28:58.645Z,14208
2016-07-15T09:29:58.402Z,11892
2016-07-15T09:30:58.553Z,13588
2016-07-15T09:31:58.655Z,16736
2016-07-15T09:32:58.400Z,21024
2016-07-15T09:33:58.415Z,26208
2016-07-15T09:35:13.933Z,33408
2016-07-15T09:37:00.589Z,26592
2016-07-15T09:37:58.724Z,19008
2016-07-15T09:38:59.021Z,19392
2016-07-15T09:39:59.872Z,21632
2016-07-15T09:40:58.438Z,19072
2016-07-15T09:41:58.432Z,14516
2016-07-15T09:42:58.441Z,14476
2016-07-15T09:43:58.439Z,16640
2016-07-15T09:45:01.018Z,19552
2016-07-15T09:45:59.189Z,18496
2016-07-15T09:47:01.211Z,12240
2016-07-15T09:47:58.453Z,10616
2016-07-15T09:49:00.204Z,10756
2016-07-15T09:49:58.930Z,9372
2016-07-15T09:50:59.310Z,7188
2016-07-15T09:51:58.470Z,6120
2016-07-15T09:52:58.479Z,6228
2016-07-15T09:53:58.463Z,6836
2016-07-15T09:54:58.472Z,7556
2016-07-15T09:55:58.475Z,7780
2016-07-15T09:56:58.478Z,7796
2016-07-15T09:57:58.480Z,8096
2016-07-15T09:58:58.481Z,7548
2016-07-15T09:59:58.488Z,6812
2016-07-15T10:00:58.487Z,7352
2016-07-15T10:01:58.489Z,7708
2016-07-15T10:02:58.492Z,6852
2016-07-15T10:03:58.494Z,6464
2016-07-15T10:04:58.495Z,6412
2016-07-15T10:05:58.502Z,7160
2016-07-15T10:06:58.496Z,7220
2016-07-15T10:07:58.501Z,6856
2016-07-15T10:08:58.510Z,6380
2016-07-15T10:09:58.510Z,6364
2016-07-15T10:10:58.515Z,7052
2016-07-15T10:11:58.506Z,7532
2016-07-15T10:12:58.511Z,7740
2016-07-15T10:13:58.511Z,8140
2016-07-15T10:14:58.511Z,8708
2016-07-15T10:15:58.508Z,9448
2016-07-15T10:16:58.527Z,10296
2016-07-15T10:17:58.514Z,11280
2016-07-15T10:18:58.513Z,12644
2016-07-15T10:19:58.519Z,14576
2016-07-15T10:20:58.514Z,16640
2016-07-15T10:21:58.516Z,18016
2016-07-15T10:22:58.510Z,18784
2016-07-15T10:23:58.518Z,19200
2016-07-15T10:24:58.519Z,19392
2016-07-15T10:25:58.515Z,19168
2016-07-15T10:26:58.525Z,19520
2016-07-15T10:27:58.523Z,20672
2016-07-15T10:28:58.536Z,18816
2016-07-15T10:29:58.525Z,14084
2016-07-15T10:30:58.527Z,10664
2016-07-15T10:31:58.529Z,8728
2016-07-15T10:32:58.525Z,8068
2016-07-15T10:33:58.526Z,7644
2016-07-15T10:34:58.525Z,6968
2016-07-15T10:35:58.533Z,6412
2016-07-15T10:36:59.229Z,6096
2016-07-15T10:37:58.542Z,5616
2016-07-15T10:38:58.533Z,5372
2016-07-15T10:39:58.543Z,4764
2016-07-15T10:40:58.542Z,4212
2016-07-15T10:41:58.547Z,3788
2016-07-15T10:42:58.546Z,3472
2016-07-15T10:43:58.604Z,3160
2016-07-15T10:44:59.147Z,3328
2016-07-15T10:46:13.563Z,3756
2016-07-15T10:46:59.094Z,3512
2016-07-15T10:47:59.045Z,3652
2016-07-15T10:48:58.552Z,4380
2016-07-15T10:49:58.549Z,4976
2016-07-15T10:50:58.552Z,5632
2016-07-15T10:51:58.549Z,5944
2016-07-15T10:53:15.178Z,6492
2016-07-15T10:54:00.071Z,6928
2016-07-15T10:55:01.832Z,7668
2016-07-15T10:56:00.529Z,8128
2016-07-15T10:56:59.291Z,8348
2016-07-15T10:57:58.859Z,8712
2016-07-15T10:58:58.560Z,9392
2016-07-15T10:59:59.121Z,9948
2016-07-15T11:00:58.556Z,10224
2016-07-15T11:01:58.733Z,10252
2016-07-15T11:02:58.555Z,10352
2016-07-15T11:03:59.880Z,10868
2016-07-15T11:04:59.468Z,11652
2016-07-15T11:06:01.047Z,12796
2016-07-15T11:06:58.989Z,13988
2016-07-15T11:07:58.820Z,15172
2016-07-15T11:08:58.561Z,15748
2016-07-15T11:09:58.595Z,17152
2016-07-15T11:10:58.569Z,18848
2016-07-15T11:11:58.563Z,21184
2016-07-15T11:12:58.564Z,23616
2016-07-15T11:13:58.557Z,26400
2016-07-15T11:14:58.566Z,29088
2016-07-15T11:15:58.567Z,31776
2016-07-15T11:16:58.566Z,34048
2016-07-15T11:17:58.558Z,36000
2016-07-15T11:18:58.568Z,37472
2016-07-15T11:19:58.564Z,38272
2016-07-15T11:20:58.570Z,38336
2016-07-15T11:21:58.576Z,38272
2016-07-15T11:22:58.575Z,37312
2016-07-15T11:23:58.581Z,35328
2016-07-15T11:24:58.578Z,30624
2016-07-15T11:25:58.584Z,26944
2016-07-15T11:26:58.598Z,24096
2016-07-15T11:27:58.587Z,22144
2016-07-15T11:28:58.596Z,21312
2016-07-15T11:29:58.598Z,18752
2016-07-15T11:30:58.600Z,13400
2016-07-15T11:31:58.606Z,9232
2016-07-15T11:32:58.614Z,7240
2016-07-15T11:33:58.619Z,7576
2016-07-15T11:34:58.618Z,8756
2016-07-15T11:35:58.621Z,8824
2016-07-15T11:36:58.621Z,8160
2016-07-15T11:37:58.632Z,8280
2016-07-15T11:38:58.637Z,11344
2016-07-15T11:39:58.638Z,13868
2016-07-15T11:40:58.643Z,15336
2016-07-15T11:41:58.642Z,14456
2016-07-15T11:42:58.656Z,13860
2016-07-15T11:43:58.657Z,12772
2016-07-15T11:44:58.655Z,10112
2016-07-15T11:45:58.660Z,7672
2016-07-15T11:46:58.672Z,5808
2016-07-15T11:47:58.668Z,4904
2016-07-15T11:48:58.673Z,4204
2016-07-15T11:49:58.687Z,3928
2016-07-15T11:50:59.367Z,3948
2016-07-15T11:51:58.681Z,3640
2016-07-15T11:52:58.683Z,3136
2016-07-15T11:53:58.687Z,2792
2016-07-15T11:54:58.693Z,2616
2016-07-15T11:55:58.692Z,2584
2016-07-15T11:56:58.689Z,2548
2016-07-15T11:57:58.701Z,2392
2016-07-15T11:58:58.704Z,2392
2016-07-15T11:59:58.702Z,2472
2016-07-15T12:00:58.702Z,2444
2016-07-15T12:02:28.545Z,2912
2016-07-15T12:03:59.510Z,3216
2016-07-15T12:04:58.771Z,3152
2016-07-15T12:05:59.411Z,3408
2016-07-15T12:06:58.716Z,3708
2016-07-15T12:07:58.711Z,3940
2016-07-15T12:08:58.716Z,4028
2016-07-15T12:09:58.719Z,4200
2016-07-15T12:11:14.687Z,4404
2016-07-15T12:12:00.221Z,4276
2016-07-15T12:13:01.005Z,4288
2016-07-15T12:14:01.532Z,4868
2016-07-15T12:15:01.304Z,5192
2016-07-15T12:15:59.621Z,5372
2016-07-15T12:16:59.715Z,5328
2016-07-15T12:18:01.440Z,5152
2016-07-15T12:18:58.720Z,5184
2016-07-15T12:19:58.726Z,5516
2016-07-15T12:20:58.719Z,6156
2016-07-15T12:21:59.445Z,7028
2016-07-15T12:23:00.277Z,7756
2016-07-15T12:24:00.763Z,8520
2016-07-15T12:24:59.574Z,9208
2016-07-15T12:26:00.222Z,9792
2016-07-15T12:26:59.858Z,10116
2016-07-15T12:27:59.116Z,9564
2016-07-15T12:28:58.725Z,8796
2016-07-15T12:29:58.732Z,9088
2016-07-15T12:30:58.732Z,9896
2016-07-15T12:31:58.724Z,11012
2016-07-15T12:32:58.729Z,12300
2016-07-15T12:33:58.728Z,13052
2016-07-15T12:34:58.725Z,12860
2016-07-15T12:35:58.725Z,11512
2016-07-15T12:36:58.726Z,9244
2016-07-15T12:37:58.725Z,7184
2016-07-15T12:38:58.727Z,5756
2016-07-15T12:39:58.729Z,4844
2016-07-15T12:40:58.742Z,4056
2016-07-15T12:41:58.725Z,3364
2016-07-15T12:42:58.729Z,3000
2016-07-15T12:43:58.731Z,3184
2016-07-15T12:44:58.729Z,3424
2016-07-15T12:45:58.731Z,3728
2016-07-15T12:46:58.733Z,3988
2016-07-15T12:47:58.730Z,4112
2016-07-15T12:48:58.726Z,3912
2016-07-15T12:49:58.723Z,3776
2016-07-15T12:50:58.736Z,3716
2016-07-15T12:51:58.729Z,4044
2016-07-15T12:52:58.736Z,4916
2016-07-15T12:53:58.741Z,6256
2016-07-15T12:54:58.747Z,7892
2016-07-15T12:55:58.740Z,8968
2016-07-15T12:56:58.728Z,9992
2016-07-15T12:57:58.746Z,10668
2016-07-15T12:58:58.732Z,10924
2016-07-15T12:59:58.731Z,11124
2016-07-15T13:00:58.735Z,11372
2016-07-15T13:01:58.738Z,11744
2016-07-15T13:02:58.736Z,12028
2016-07-15T13:03:58.744Z,12008
2016-07-15T13:04:58.736Z,11392
2016-07-15T13:05:58.732Z,10276
2016-07-15T13:06:58.736Z,9672
2016-07-15T13:07:58.738Z,10236
2016-07-15T13:08:58.737Z,10584
2016-07-15T13:09:58.741Z,9872
2016-07-15T13:10:58.733Z,8164
2016-07-15T13:11:58.734Z,6296
2016-07-15T13:12:58.736Z,5732
2016-07-15T13:13:58.735Z,5908
2016-07-15T13:14:58.735Z,6220
2016-07-15T13:15:58.739Z,6536
2016-07-15T13:16:58.737Z,6920
2016-07-15T13:17:58.740Z,7908
2016-07-15T13:18:58.744Z,8736
2016-07-15T13:19:59.290Z,8912
2016-07-15T13:21:28.724Z,8672
2016-07-15T13:21:59.339Z,8492
2016-07-15T13:22:59.290Z,8076
2016-07-15T13:23:58.892Z,7688
2016-07-15T13:24:59.537Z,7296
2016-07-15T13:25:59.449Z,7296
2016-07-15T13:26:58.788Z,8820
2016-07-15T13:27:58.733Z,11672
2016-07-15T13:28:59.541Z,14520
2016-07-15T13:30:00.294Z,15768
2016-07-15T13:31:00.612Z,16576
2016-07-15T13:33:00.249Z,19520
2016-07-15T13:33:59.558Z,21568
2016-07-15T13:34:59.235Z,22976
2016-07-15T13:35:59.034Z,23776
2016-07-15T13:36:58.737Z,23872
2016-07-15T13:37:58.735Z,23616
2016-07-15T13:38:58.735Z,23424
2016-07-15T13:39:59.231Z,24256
2016-07-15T13:41:01.087Z,25728
2016-07-15T13:41:59.532Z,27040
2016-07-15T13:42:59.573Z,28000
2016-07-15T13:43:59.234Z,28224